Time;durP1;ratioP1;P1;durP2;ratioP2;P2;SDS_P1;SDS_P2;PMS_P1;PMS_P2;Temp;Humidity;BMP_temperature;BMP_pressure;BME280_temperature;BME280_humidity;BME280_pressure;Samples;Min_cycle;Max_cycle;Signal;HPM_P1;HPM_P2
2023/07/10 00:02:25;;;;;;;;;;;;;;;;;;2202099;67;1417;-24
2023/07/10 00:04:55;;;;;;;;;;;;;;;;;;2205356;59;1302;-24
2023/07/10 00:07:25;;;;;;;;;;;;;;;;;;2205369;67;1297;-24
2023/07/10 00:09:55;;;;;;;;;;;;;;;;;;2205993;67;1639;-24
2023/07/10 00:12:25;;;;;;;;;;;;;;;;;;2202637;59;1705;-24
2023/07/10 00:14:56;;;;;;;;;;;;;;;;;;2205583;59;2310;-24
2023/07/10 00:17:26;;;;;;;;;;;;;;;;;;2205178;59;2031;-25
2023/07/10 00:19:56;;;;;;;;;;;;;;;;;;2205116;67;1324;-24
2023/07/10 00:22:26;;;;;;;;;;;;;;;;;;2205519;59;1305;-24
2023/07/10 00:25:00;;;;;;;;;;;;;;;;;;2205514;59;1829;-24
2023/07/10 00:27:30;;;;;;;;;;;;;;;;;;2204076;59;1252;-23
2023/07/10 00:30:00;;;;;;;;;;;;;;;;;;2198677;59;1283;-23
2023/07/10 00:32:30;;;;;;;;;;;;;;;;;;2204866;59;2249;-23
2023/07/10 00:35:00;;;;;;;;;;;;;;;;;;2204691;67;1230;-23
2023/07/10 00:37:31;;;;;;;;;;;;;;;;;;2204013;67;2000;-23
2023/07/10 00:40:01;;;;;;;;;;;;;;;;;;2205330;67;1481;-23
2023/07/10 00:42:32;;;;;;;;;;;;;;;;;;2205924;67;1216;-23
2023/07/10 00:45:03;;;;;;;;;;;;;;;;;;2205516;67;1345;-23
2023/07/10 00:47:38;;;;;;;;;;;;;;;;;;2205794;59;1278;-23
2023/07/10 00:50:12;;;;;;;;;;;;;;;;;;2205332;67;1237;-23
2023/07/10 00:52:47;;;;;;;;;;;;;;;;;;2205583;59;1466;-23
2023/07/10 00:55:32;;;;;;;;;;;;;;;;;;2203831;59;1219;-23
2023/07/10 00:58:22;;;;;;;;;;;;;;;;;;2205126;67;1917;-23
2023/07/10 01:01:02;;;;;;;;;;;;;;;;;;2205055;67;1580;-23
2023/07/10 01:03:33;;;;;;;;;;;;;;;;;;2205751;59;1584;-23
2023/07/10 01:06:09;;;;;;;;;;;;;;;;;;2200090;67;1636;-23
2023/07/10 01:08:41;;;;;;;;;;;;;;;;;;2205425;67;1357;-23
2023/07/10 01:11:11;;;;;;;;;;;;;;;;;;2204751;59;1612;-23
2023/07/10 01:13:42;;;;;;;;;;;;;;;;;;2204548;67;1132;-23
2023/07/10 01:16:12;;;;;;;;;;;;;;;;;;2204455;67;1326;-23
2023/07/10 01:18:43;;;;;;;;;;;;;;;;;;2204774;67;1997;-24
2023/07/10 01:21:19;;;;;;;;;;;;;;;;;;2205380;67;1560;-24
2023/07/10 01:23:49;;;;;;;;;;;;;;;;;;2205275;67;1120;-24
2023/07/10 01:26:20;;;;;;;;;;;;;;;;;;2205037;59;1792;-24
2023/07/10 01:28:51;;;;;;;;;;;;;;;;;;2205102;67;1649;-24
2023/07/10 01:31:23;;;;;;;;;;;;;;;;;;2204562;59;1413;-24
2023/07/10 01:33:58;;;;;;;;;;;;;;;;;;2205288;67;1199;-24
2023/07/10 01:36:31;;;;;;;;;;;;;;;;;;2205491;67;1276;-24
2023/07/10 01:39:04;;;;;;;;;;;;;;;;;;2205114;67;1959;-23
2023/07/10 01:41:39;;;;;;;;;;;;;;;;;;2205790;67;1287;-24
2023/07/10 01:44:23;;;;;;;;;;;;;;;;;;2204976;67;1763;-24
2023/07/10 01:46:53;;;;;;;;;;;;;;;;;;2201585;67;1633;-23
2023/07/10 01:49:28;;;;;;;;;;;;;;;;;;2205335;59;1295;-24
2023/07/10 01:51:59;;;;;;;;;;;;;;;;;;2204803;59;1965;-24
2023/07/10 01:54:31;;;;;;;;;;;;;;;;;;2205439;67;1267;-23
2023/07/10 01:57:02;;;;;;;;;;;;;;;;;;2201871;59;2004;-23
2023/07/10 01:59:32;;;;;;;;;;;;;;;;;;2205552;67;1616;-24
2023/07/10 02:02:04;;;;;;;;;;;;;;;;;;2204753;67;1175;-24
2023/07/10 02:04:34;;;;;;;;;;;;;;;;;;2205903;59;1627;-24
2023/07/10 02:07:04;;;;;;;;;;;;;;;;;;2204570;67;1708;-24
2023/07/10 02:09:38;;;;;;;;;;;;;;;;;;2205297;67;1242;-24
2023/07/10 02:12:08;;;;;;;;;;;;;;;;;;2204198;59;2100;-24
2023/07/10 02:14:39;;;;;;;;;;;;;;;;;;2205084;67;1163;-24
2023/07/10 02:17:09;;;;;;;;;;;;;;;;;;2201265;67;1946;-24
2023/07/10 02:19:39;;;;;;;;;;;;;;;;;;2204998;67;1715;-24
2023/07/10 02:22:10;;;;;;;;;;;;;;;;;;2204422;67;1601;-23
2023/07/10 02:24:41;;;;;;;;;;;;;;;;;;2201725;67;1403;-24
2023/07/10 02:27:12;;;;;;;;;;;;;;;;;;2204624;59;1757;-24
2023/07/10 02:29:48;;;;;;;;;;;;;;;;;;2205006;59;1162;-23
2023/07/10 02:32:18;;;;;;;;;;;;;;;;;;2201645;59;1349;-24
2023/07/10 02:34:48;;;;;;;;;;;;;;;;;;2204998;67;2033;-24
2023/07/10 02:37:19;;;;;;;;;;;;;;;;;;2205149;67;2098;-23
2023/07/10 02:39:50;;;;;;;;;;;;;;;;;;2205359;67;1146;-23
2023/07/10 02:42:20;;;;;;;;;;;;;;;;;;2205140;67;1694;-23
2023/07/10 02:44:50;;;;;;;;;;;;;;;;;;2200424;67;1249;-23
2023/07/10 02:47:20;;;;;;;;;;;;;;;;;;2204682;59;1303;-23
2023/07/10 02:49:54;;;;;;;;;;;;;;;;;;2205109;59;1272;-22
2023/07/10 02:52:24;;;;;;;;;;;;;;;;;;2205445;59;1301;-23
2023/07/10 02:54:54;;;;;;;;;;;;;;;;;;2201242;67;1426;-23
2023/07/10 02:57:24;;;;;;;;;;;;;;;;;;2204911;59;1941;-23
2023/07/10 02:59:54;;;;;;;;;;;;;;;;;;2200613;67;1429;-23
2023/07/10 03:02:25;;;;;;;;;;;;;;;;;;2204985;67;1217;-23
2023/07/10 03:04:55;;;;;;;;;;;;;;;;;;2204601;59;1575;-23
2023/07/10 03:07:25;;;;;;;;;;;;;;;;;;2205239;67;1428;-23
2023/07/10 03:09:55;;;;;;;;;;;;;;;;;;2204910;67;2042;-23
2023/07/10 03:12:26;;;;;;;;;;;;;;;;;;2205550;59;1764;-23
2023/07/10 03:14:56;;;;;;;;;;;;;;;;;;2205073;67;1302;-23
2023/07/10 03:17:26;;;;;;;;;;;;;;;;;;2205156;67;1941;-22
2023/07/10 03:19:56;;;;;;;;;;;;;;;;;;2204874;67;1408;-24
2023/07/10 03:22:27;;;;;;;;;;;;;;;;;;2205187;67;1149;-24
2023/07/10 03:24:57;;;;;;;;;;;;;;;;;;2205409;59;2183;-24
2023/07/10 03:27:29;;;;;;;;;;;;;;;;;;2199176;59;1774;-24
2023/07/10 03:30:00;;;;;;;;;;;;;;;;;;2205417;67;1717;-24
2023/07/10 03:32:30;;;;;;;;;;;;;;;;;;2205739;59;1808;-24
2023/07/10 03:35:00;;;;;;;;;;;;;;;;;;2205638;67;1307;-23
2023/07/10 03:37:30;;;;;;;;;;;;;;;;;;2205743;67;1951;-24
2023/07/10 03:40:01;;;;;;;;;;;;;;;;;;2205414;67;1424;-23
2023/07/10 03:42:31;;;;;;;;;;;;;;;;;;2205817;67;1376;-24
2023/07/10 03:45:01;;;;;;;;;;;;;;;;;;2205747;67;1411;-24
2023/07/10 03:47:31;;;;;;;;;;;;;;;;;;2202511;60;1312;-24
2023/07/10 03:50:02;;;;;;;;;;;;;;;;;;2204905;59;1718;-24
2023/07/10 03:52:32;;;;;;;;;;;;;;;;;;2205634;59;1282;-24
2023/07/10 03:55:05;;;;;;;;;;;;;;;;;;2198971;67;1625;-23
2023/07/10 03:57:36;;;;;;;;;;;;;;;;;;2205759;59;2006;-24
2023/07/10 04:00:06;;;;;;;;;;;;;;;;;;2204296;67;1129;-24
2023/07/10 04:02:36;;;;;;;;;;;;;;;;;;2204870;67;1808;-24
2023/07/10 04:05:07;;;;;;;;;;;;;;;;;;2204511;59;1436;-24
2023/07/10 04:07:37;;;;;;;;;;;;;;;;;;2205703;59;1226;-23
2023/07/10 04:10:07;;;;;;;;;;;;;;;;;;2200956;67;1326;-24
2023/07/10 04:12:42;;;;;;;;;;;;;;;;;;2205593;59;1858;-24
2023/07/10 04:15:12;;;;;;;;;;;;;;;;;;2204941;67;2032;-23
2023/07/10 04:17:43;;;;;;;;;;;;;;;;;;2202433;67;1924;-24
2023/07/10 04:20:13;;;;;;;;;;;;;;;;;;2205130;67;1468;-24
2023/07/10 04:22:43;;;;;;;;;;;;;;;;;;2205767;67;1335;-24
2023/07/10 04:25:14;;;;;;;;;;;;;;;;;;2205380;59;1288;-24
2023/07/10 04:27:44;;;;;;;;;;;;;;;;;;2205667;59;1489;-24
2023/07/10 04:30:15;;;;;;;;;;;;;;;;;;2204899;67;1272;-24
2023/07/10 04:32:45;;;;;;;;;;;;;;;;;;2202451;67;1694;-24
2023/07/10 04:35:18;;;;;;;;;;;;;;;;;;2204932;67;1458;-24
2023/07/10 04:37:48;;;;;;;;;;;;;;;;;;2205673;67;1949;-24
2023/07/10 04:40:18;;;;;;;;;;;;;;;;;;2205174;67;1644;-24
2023/07/10 04:42:50;;;;;;;;;;;;;;;;;;2205872;67;1345;-24
2023/07/10 04:45:21;;;;;;;;;;;;;;;;;;2205069;67;1664;-24
2023/07/10 04:47:54;;;;;;;;;;;;;;;;;;2205598;67;1440;-24
2023/07/10 04:50:24;;;;;;;;;;;;;;;;;;2205371;67;1191;-24
2023/07/10 04:52:54;;;;;;;;;;;;;;;;;;2205041;59;1710;-24
2023/07/10 04:55:24;;;;;;;;;;;;;;;;;;2205475;59;1144;-24
2023/07/10 04:57:54;;;;;;;;;;;;;;;;;;2205495;59;1927;-24
2023/07/10 05:00:25;;;;;;;;;;;;;;;;;;2205472;67;1364;-24
2023/07/10 05:02:55;;;;;;;;;;;;;;;;;;2202075;59;1950;-24
2023/07/10 05:05:25;;;;;;;;;;;;;;;;;;2205840;59;1294;-24
2023/07/10 05:07:59;;;;;;;;;;;;;;;;;;2205621;59;1546;-24
2023/07/10 05:10:29;;;;;;;;;;;;;;;;;;2205573;67;1301;-24
2023/07/10 05:13:00;;;;;;;;;;;;;;;;;;2201697;59;1665;-24
2023/07/10 05:15:30;;;;;;;;;;;;;;;;;;2205828;67;1283;-24
2023/07/10 05:18:00;;;;;;;;;;;;;;;;;;2205380;67;2086;-24
2023/07/10 05:20:30;;;;;;;;;;;;;;;;;;2206353;67;1216;-24
2023/07/10 05:23:00;;;;;;;;;;;;;;;;;;2205450;67;1482;-24
2023/07/10 05:25:31;;;;;;;;;;;;;;;;;;2205800;59;1248;-24
2023/07/10 05:28:01;;;;;;;;;;;;;;;;;;2204307;59;1188;-24
2023/07/10 05:30:31;;;;;;;;;;;;;;;;;;2201981;67;1275;-24
2023/07/10 05:33:03;;;;;;;;;;;;;;;;;;2201724;67;1957;-24
2023/07/10 05:35:33;;;;;;;;;;;;;;;;;;2204582;67;2114;-24
2023/07/10 05:38:03;;;;;;;;;;;;;;;;;;2204684;67;2047;-24
2023/07/10 05:40:33;;;;;;;;;;;;;;;;;;2201237;67;1449;-24
2023/07/10 05:43:04;;;;;;;;;;;;;;;;;;2201359;67;1430;-24
2023/07/10 05:45:34;;;;;;;;;;;;;;;;;;2205517;59;1884;-24
2023/07/10 05:48:05;;;;;;;;;;;;;;;;;;2205250;67;2083;-24
2023/07/10 05:50:36;;;;;;;;;;;;;;;;;;2205456;59;1694;-24
2023/07/10 05:53:06;;;;;;;;;;;;;;;;;;2204770;67;1727;-24
2023/07/10 05:55:36;;;;;;;;;;;;;;;;;;2205837;59;1648;-24
2023/07/10 05:58:06;;;;;;;;;;;;;;;;;;2205147;67;1998;-24
2023/07/10 06:00:37;;;;;;;;;;;;;;;;;;2205193;67;1631;-24
2023/07/10 06:03:07;;;;;;;;;;;;;;;;;;2205565;59;1756;-24
2023/07/10 06:05:37;;;;;;;;;;;;;;;;;;2205552;67;1723;-24
2023/07/10 06:08:10;;;;;;;;;;;;;;;;;;2201743;59;1295;-24
2023/07/10 06:10:40;;;;;;;;;;;;;;;;;;2205577;67;1619;-24
2023/07/10 06:13:10;;;;;;;;;;;;;;;;;;2205355;59;1562;-24
2023/07/10 06:15:42;;;;;;;;;;;;;;;;;;2205683;67;1206;-24
2023/07/10 06:18:13;;;;;;;;;;;;;;;;;;2205032;67;1991;-24
2023/07/10 06:20:43;;;;;;;;;;;;;;;;;;2205160;67;1184;-24
2023/07/10 06:23:13;;;;;;;;;;;;;;;;;;2201379;67;1255;-23
2023/07/10 06:25:44;;;;;;;;;;;;;;;;;;2202215;59;1473;-23
2023/07/10 06:28:14;;;;;;;;;;;;;;;;;;2204941;67;1926;-23
2023/07/10 06:31:05;;;;;;;;;;;;;;;;;;2204860;59;1234;-23
2023/07/10 06:33:36;;;;;;;;;;;;;;;;;;2204310;67;2217;-23
2023/07/10 06:36:06;;;;;;;;;;;;;;;;;;2205099;67;1470;-23
2023/07/10 06:38:37;;;;;;;;;;;;;;;;;;2205302;67;1924;-23
2023/07/10 06:41:07;;;;;;;;;;;;;;;;;;2205061;67;2080;-23
2023/07/10 06:43:37;;;;;;;;;;;;;;;;;;2204950;67;1287;-23
2023/07/10 06:46:08;;;;;;;;;;;;;;;;;;2200329;59;1424;-23
2023/07/10 06:48:39;;;;;;;;;;;;;;;;;;2205202;67;1436;-23
2023/07/10 06:51:09;;;;;;;;;;;;;;;;;;2204668;59;1649;-23
2023/07/10 06:53:39;;;;;;;;;;;;;;;;;;2205542;67;1250;-23
2023/07/10 06:56:12;;;;;;;;;;;;;;;;;;2203537;59;2238;-23
2023/07/10 06:58:43;;;;;;;;;;;;;;;;;;2201966;67;2150;-23
2023/07/10 07:01:13;;;;;;;;;;;;;;;;;;2203633;59;1690;-23
2023/07/10 07:03:43;;;;;;;;;;;;;;;;;;2205431;59;1468;-23
2023/07/10 07:06:13;;;;;;;;;;;;;;;;;;2203889;67;1188;-24
2023/07/10 07:08:47;;;;;;;;;;;;;;;;;;2204847;67;1250;-24
2023/07/10 07:11:18;;;;;;;;;;;;;;;;;;2204810;59;1565;-24
2023/07/10 07:13:48;;;;;;;;;;;;;;;;;;2205232;67;1894;-24
2023/07/10 07:16:18;;;;;;;;;;;;;;;;;;2204605;67;2001;-24
2023/07/10 07:18:50;;;;;;;;;;;;;;;;;;2204575;59;2625;-23
2023/07/10 07:21:20;;;;;;;;;;;;;;;;;;2204626;67;1321;-23
2023/07/10 07:23:50;;;;;;;;;;;;;;;;;;2205483;67;1302;-24
2023/07/10 07:26:23;;;;;;;;;;;;;;;;;;2203914;59;1399;-23
2023/07/10 07:28:54;;;;;;;;;;;;;;;;;;2205385;67;1447;-23
2023/07/10 07:31:27;;;;;;;;;;;;;;;;;;2205365;59;1241;-23
2023/07/10 07:33:57;;;;;;;;;;;;;;;;;;2204078;59;1481;-23
2023/07/10 07:36:32;;;;;;;;;;;;;;;;;;2203955;59;2097;-23
2023/07/10 07:39:03;;;;;;;;;;;;;;;;;;2204636;67;1932;-23
2023/07/10 07:41:36;;;;;;;;;;;;;;;;;;2202768;59;2906;-24
2023/07/10 07:44:06;;;;;;;;;;;;;;;;;;2204040;59;1346;-23
2023/07/10 07:46:36;;;;;;;;;;;;;;;;;;2202684;59;1844;-24
2023/07/10 07:49:07;;;;;;;;;;;;;;;;;;2204648;59;1541;-23
2023/07/10 07:51:40;;;;;;;;;;;;;;;;;;2204169;59;2370;-21
2023/07/10 07:54:11;;;;;;;;;;;;;;;;;;2204688;67;1414;-21
2023/07/10 07:56:42;;;;;;;;;;;;;;;;;;2204511;67;1533;-22
2023/07/10 07:59:12;;;;;;;;;;;;;;;;;;2204266;59;1988;-22
2023/07/10 08:01:43;;;;;;;;;;;;;;;;;;2204304;67;2774;-21
2023/07/10 08:04:13;;;;;;;;;;;;;;;;;;2203779;59;1875;-22
2023/07/10 08:06:46;;;;;;;;;;;;;;;;;;2204930;59;2218;-22
2023/07/10 08:09:16;;;;;;;;;;;;;;;;;;2202826;59;2772;-22
2023/07/10 08:11:46;;;;;;;;;;;;;;;;;;2204780;59;3174;-22
2023/07/10 08:14:17;;;;;;;;;;;;;;;;;;2204949;59;1273;-22
2023/07/10 08:16:47;;;;;;;;;;;;;;;;;;2217691;54;3011;-19
2023/07/10 08:19:20;;;;;;;;;;;;;;;;;;2191429;59;3021;-19
2023/07/10 08:21:50;;;;;;;;;;;;;;;;;;2196667;59;2922;-18
2023/07/10 08:24:21;;;;;;;;;;;;;;;;;;2195233;59;2617;-19
2023/07/10 08:26:51;;;;;;;;;;;;;;;;;;2199314;59;2452;-19
2023/07/10 08:29:21;;;;;;;;;;;;;;;;;;2200197;59;2420;-19
2023/07/10 08:31:55;;;;;;;;;;;;;;;;;;2200314;59;2738;-18
2023/07/10 08:34:27;;;;;;;;;;;;;;;;;;2200267;59;2517;-18
2023/07/10 08:37:01;;;;;;;;;;;;;;;;;;2197732;59;1972;-18
2023/07/10 08:39:31;;;;;;;;;;;;;;;;;;2200666;67;2713;-19
2023/07/10 08:42:03;;;;;;;;;;;;;;;;;;2201015;67;2107;-19
2023/07/10 08:44:35;;;;;;;;;;;;;;;;;;2201446;67;2650;-19
2023/07/10 08:47:14;;;;;;;;;;;;;;;;;;2200863;59;2033;-19
2023/07/10 08:49:58;;;;;;;;;;;;;;;;;;2199131;59;2472;-18
2023/07/10 08:52:31;;;;;;;;;;;;;;;;;;2200121;59;1795;-18
2023/07/10 08:55:01;;;;;;;;;;;;;;;;;;2196158;59;2594;-18
2023/07/10 08:57:34;;;;;;;;;;;;;;;;;;2197035;59;2719;-18
2023/07/10 09:00:06;;;;;;;;;;;;;;;;;;2199839;67;2513;-19
2023/07/10 09:02:37;;;;;;;;;;;;;;;;;;2200753;67;2344;-18
2023/07/10 09:05:10;;;;;;;;;;;;;;;;;;2199909;59;2364;-19
2023/07/10 09:07:42;;;;;;;;;;;;;;;;;;2201422;67;2424;-19
2023/07/10 09:10:16;;;;;;;;;;;;;;;;;;2199438;67;2640;-18
2023/07/10 09:12:49;;;;;;;;;;;;;;;;;;2200486;59;2796;-19
2023/07/10 09:15:29;;;;;;;;;;;;;;;;;;2197437;59;3083;-18
2023/07/10 09:18:13;;;;;;;;;;;;;;;;;;2200162;59;2777;-19
2023/07/10 09:20:43;;;;;;;;;;;;;;;;;;2200249;59;3064;-19
2023/07/10 09:23:20;;;;;;;;;;;;;;;;;;2200423;59;2543;-19
2023/07/10 09:25:54;;;;;;;;;;;;;;;;;;2200404;59;3838;-19
2023/07/10 09:28:25;;;;;;;;;;;;;;;;;;2201092;67;2644;-19
2023/07/10 09:31:07;;;;;;;;;;;;;;;;;;2200699;59;2709;-19
2023/07/10 09:33:42;;;;;;;;;;;;;;;;;;2201687;67;2296;-19
2023/07/10 09:36:13;;;;;;;;;;;;;;;;;;2198353;67;1707;-19
2023/07/10 09:38:45;;;;;;;;;;;;;;;;;;2198110;67;1997;-19
2023/07/10 09:41:26;;;;;;;;;;;;;;;;;;2199433;67;2496;-19
2023/07/10 09:44:01;;;;;;;;;;;;;;;;;;2201119;67;2483;-19
2023/07/10 09:46:35;;;;;;;;;;;;;;;;;;2201397;59;3165;-19
2023/07/10 09:49:11;;;;;;;;;;;;;;;;;;2193538;59;3306;-19
2023/07/10 09:51:50;;;;;;;;;;;;;;;;;;2201352;59;2793;-19
2023/07/10 09:54:20;;;;;;;;;;;;;;;;;;2200890;59;2295;-18
2023/07/10 09:56:51;;;;;;;;;;;;;;;;;;2197873;59;2507;-19
2023/07/10 09:59:26;;;;;;;;;;;;;;;;;;2200530;59;3010;-18
2023/07/10 10:02:02;;;;;;;;;;;;;;;;;;2195473;59;2068;-19
2023/07/10 10:04:32;;;;;;;;;;;;;;;;;;2200205;59;2110;-19
2023/07/10 10:07:04;;;;;;;;;;;;;;;;;;2197399;59;2137;-19
2023/07/10 10:09:35;;;;;;;;;;;;;;;;;;2201277;67;2063;-19
2023/07/10 10:12:14;;;;;;;;;;;;;;;;;;2200666;59;2765;-19
2023/07/10 10:14:49;;;;;;;;;;;;;;;;;;2202182;67;2825;-19
2023/07/10 10:17:21;;;;;;;;;;;;;;;;;;2200709;59;2013;-18
2023/07/10 10:19:56;;;;;;;;;;;;;;;;;;2200553;67;2185;-19
2023/07/10 10:22:29;;;;;;;;;;;;;;;;;;2199216;59;2310;-19
2023/07/10 10:24:59;;;;;;;;;;;;;;;;;;2200672;59;2834;-20
2023/07/10 10:27:52;;;;;;;;;;;;;;;;;;2200495;59;2864;-19
2023/07/10 10:30:35;;;;;;;;;;;;;;;;;;2199547;67;1759;-18
2023/07/10 10:33:18;;;;;;;;;;;;;;;;;;2200377;59;2829;-19
2023/07/10 10:35:56;;;;;;;;;;;;;;;;;;2199577;59;3509;-19
2023/07/10 10:38:26;;;;;;;;;;;;;;;;;;2201470;67;1978;-19
2023/07/10 10:41:02;;;;;;;;;;;;;;;;;;2199901;67;2368;-18
2023/07/10 10:43:36;;;;;;;;;;;;;;;;;;2201378;67;1524;-19
2023/07/10 10:46:25;;;;;;;;;;;;;;;;;;2198334;59;1772;-18
2023/07/10 10:48:55;;;;;;;;;;;;;;;;;;2201710;67;2240;-20
2023/07/10 10:51:39;;;;;;;;;;;;;;;;;;2199937;59;2417;-18
2023/07/10 10:54:13;;;;;;;;;;;;;;;;;;2201424;67;2131;-19
2023/07/10 10:57:03;;;;;;;;;;;;;;;;;;2197716;59;2682;-19
2023/07/10 10:59:45;;;;;;;;;;;;;;;;;;2198531;59;2362;-19
2023/07/10 11:02:29;;;;;;;;;;;;;;;;;;2196825;67;2525;-19
2023/07/10 11:05:08;;;;;;;;;;;;;;;;;;2200745;59;2196;-20
2023/07/10 11:07:40;;;;;;;;;;;;;;;;;;2198338;67;1816;-19
2023/07/10 11:10:18;;;;;;;;;;;;;;;;;;2201282;67;2141;-20
2023/07/10 11:12:49;;;;;;;;;;;;;;;;;;2201498;59;1888;-19
2023/07/10 11:15:21;;;;;;;;;;;;;;;;;;2201200;67;1931;-19
2023/07/10 11:17:53;;;;;;;;;;;;;;;;;;2201488;59;2441;-19
2023/07/10 11:20:25;;;;;;;;;;;;;;;;;;2201067;59;2792;-19
2023/07/10 11:23:04;;;;;;;;;;;;;;;;;;2201399;59;2374;-19
2023/07/10 11:25:35;;;;;;;;;;;;;;;;;;2193959;59;2251;-19
2023/07/10 11:28:32;;;;;;;;;;;;;;;;;;2199930;59;2316;-19
2023/07/10 11:31:16;;;;;;;;;;;;;;;;;;2197104;59;3656;-19
2023/07/10 11:33:51;;;;;;;;;;;;;;;;;;2201514;59;2015;-18
2023/07/10 11:36:24;;;;;;;;;;;;;;;;;;2200022;59;2616;-19
2023/07/10 11:38:58;;;;;;;;;;;;;;;;;;2200865;59;2365;-19
2023/07/10 11:41:31;;;;;;;;;;;;;;;;;;2200799;67;1946;-19
2023/07/10 11:44:21;;;;;;;;;;;;;;;;;;2201381;67;2268;-19
2023/07/10 11:47:00;;;;;;;;;;;;;;;;;;2201301;59;1736;-19
2023/07/10 11:49:33;;;;;;;;;;;;;;;;;;2200875;59;1794;-19
2023/07/10 11:52:13;;;;;;;;;;;;;;;;;;2200904;59;1763;-19
2023/07/10 11:54:49;;;;;;;;;;;;;;;;;;2201017;67;2093;-19
2023/07/10 11:57:23;;;;;;;;;;;;;;;;;;2200005;59;2368;-19
2023/07/10 11:59:58;;;;;;;;;;;;;;;;;;2201462;67;2388;-19
2023/07/10 12:02:44;;;;;;;;;;;;;;;;;;2201970;59;2268;-19
2023/07/10 12:05:15;;;;;;;;;;;;;;;;;;2201253;59;2448;-18
2023/07/10 12:07:50;;;;;;;;;;;;;;;;;;2197281;59;2635;-19
2023/07/10 12:10:33;;;;;;;;;;;;;;;;;;2199720;59;2020;-19
2023/07/10 12:13:14;;;;;;;;;;;;;;;;;;2200751;59;2125;-19
2023/07/10 12:15:46;;;;;;;;;;;;;;;;;;2202189;59;2702;-18
2023/07/10 12:18:19;;;;;;;;;;;;;;;;;;2199506;59;1957;-19
2023/07/10 12:20:50;;;;;;;;;;;;;;;;;;2200141;67;1843;-19
2023/07/10 12:23:20;;;;;;;;;;;;;;;;;;2199965;67;3058;-19
2023/07/10 12:25:51;;;;;;;;;;;;;;;;;;2200470;59;2414;-19
2023/07/10 12:28:23;;;;;;;;;;;;;;;;;;2199074;59;3099;-19
2023/07/10 12:30:54;;;;;;;;;;;;;;;;;;2199514;59;3356;-19
2023/07/10 12:33:32;;;;;;;;;;;;;;;;;;2199906;59;2800;-19
2023/07/10 12:36:04;;;;;;;;;;;;;;;;;;2201399;67;2439;-18
2023/07/10 12:38:35;;;;;;;;;;;;;;;;;;2200858;59;1978;-19
2023/07/10 12:41:06;;;;;;;;;;;;;;;;;;2194719;67;2111;-19
2023/07/10 12:43:36;;;;;;;;;;;;;;;;;;2197231;67;2316;-19
2023/07/10 12:46:13;;;;;;;;;;;;;;;;;;2201564;59;2665;-19
2023/07/10 12:48:44;;;;;;;;;;;;;;;;;;2201575;67;2070;-18
2023/07/10 12:51:22;;;;;;;;;;;;;;;;;;2200734;59;2166;-19
2023/07/10 12:53:53;;;;;;;;;;;;;;;;;;2201937;67;1845;-19
2023/07/10 12:56:26;;;;;;;;;;;;;;;;;;2197288;59;2217;-19
2023/07/10 12:58:58;;;;;;;;;;;;;;;;;;2200152;59;2124;-18
2023/07/10 13:01:35;;;;;;;;;;;;;;;;;;2200342;59;2458;-19
2023/07/10 13:04:05;;;;;;;;;;;;;;;;;;2201328;59;2381;-19
2023/07/10 13:06:35;;;;;;;;;;;;;;;;;;2199808;59;2366;-19
2023/07/10 13:09:05;;;;;;;;;;;;;;;;;;2200658;60;2360;-18
2023/07/10 13:11:41;;;;;;;;;;;;;;;;;;2198147;59;2617;-19
2023/07/10 13:14:31;;;;;;;;;;;;;;;;;;2200307;59;2737;-19
2023/07/10 13:17:01;;;;;;;;;;;;;;;;;;2197145;59;2859;-19
2023/07/10 13:19:32;;;;;;;;;;;;;;;;;;2199397;59;2397;-19
2023/07/10 13:22:08;;;;;;;;;;;;;;;;;;2197092;59;2394;-19
2023/07/10 13:24:38;;;;;;;;;;;;;;;;;;2198190;59;2325;-19
2023/07/10 13:27:29;;;;;;;;;;;;;;;;;;2197334;59;2526;-19
2023/07/10 13:29:59;;;;;;;;;;;;;;;;;;2194920;59;2940;-19
2023/07/10 13:32:32;;;;;;;;;;;;;;;;;;2197801;67;2013;-20
2023/07/10 13:35:02;;;;;;;;;;;;;;;;;;2196768;67;1543;-19
2023/07/10 13:37:33;;;;;;;;;;;;;;;;;;2200007;59;2254;-20
2023/07/10 13:40:03;;;;;;;;;;;;;;;;;;2200671;67;1797;-19
2023/07/10 13:42:33;;;;;;;;;;;;;;;;;;2200154;59;1994;-19
2023/07/10 13:45:04;;;;;;;;;;;;;;;;;;2200798;67;2459;-19
2023/07/10 13:47:34;;;;;;;;;;;;;;;;;;2196671;59;2457;-19
2023/07/10 13:50:04;;;;;;;;;;;;;;;;;;2199992;59;2420;-19
2023/07/10 13:52:35;;;;;;;;;;;;;;;;;;2199727;59;2593;-19
2023/07/10 13:55:05;;;;;;;;;;;;;;;;;;2199989;67;1859;-19
2023/07/10 13:57:35;;;;;;;;;;;;;;;;;;2201184;59;2971;-19
2023/07/10 14:00:06;;;;;;;;;;;;;;;;;;2201097;60;1868;-19
2023/07/10 14:02:38;;;;;;;;;;;;;;;;;;2197320;59;2435;-19
2023/07/10 14:05:11;;;;;;;;;;;;;;;;;;2201056;59;2214;-19
2023/07/10 14:07:43;;;;;;;;;;;;;;;;;;2201402;67;1868;-19
2023/07/10 14:10:17;;;;;;;;;;;;;;;;;;2201170;62;1773;-19
2023/07/10 14:12:48;;;;;;;;;;;;;;;;;;2199723;59;2280;-19
2023/07/10 14:15:19;;;;;;;;;;;;;;;;;;2200904;67;1860;-19
2023/07/10 14:17:49;;;;;;;;;;;;;;;;;;2201388;59;2106;-19
2023/07/10 14:20:21;;;;;;;;;;;;;;;;;;2201406;67;1755;-19
2023/07/10 14:22:51;;;;;;;;;;;;;;;;;;2201786;67;2266;-19
2023/07/10 14:25:22;;;;;;;;;;;;;;;;;;2200823;59;2230;-19
2023/07/10 14:27:52;;;;;;;;;;;;;;;;;;2200397;59;2829;-19
2023/07/10 14:30:22;;;;;;;;;;;;;;;;;;2200118;59;2266;-20
2023/07/10 14:32:52;;;;;;;;;;;;;;;;;;2200356;59;2644;-19
2023/07/10 14:35:23;;;;;;;;;;;;;;;;;;2200453;59;2411;-19
2023/07/10 14:37:53;;;;;;;;;;;;;;;;;;2200828;67;2663;-19
2023/07/10 14:40:23;;;;;;;;;;;;;;;;;;2200925;67;2838;-19
2023/07/10 14:42:54;;;;;;;;;;;;;;;;;;2201822;67;2031;-20
2023/07/10 14:45:24;;;;;;;;;;;;;;;;;;2200509;67;1849;-19
2023/07/10 14:47:54;;;;;;;;;;;;;;;;;;2201475;59;2306;-19
2023/07/10 14:50:24;;;;;;;;;;;;;;;;;;2199921;67;1762;-19
2023/07/10 14:52:56;;;;;;;;;;;;;;;;;;2201120;59;2036;-19
2023/07/10 14:55:26;;;;;;;;;;;;;;;;;;2199872;59;2038;-19
2023/07/10 14:57:56;;;;;;;;;;;;;;;;;;2200608;59;2122;-19
2023/07/10 15:00:26;;;;;;;;;;;;;;;;;;2200736;67;2333;-19
2023/07/10 15:02:57;;;;;;;;;;;;;;;;;;2201094;59;2475;-19
2023/07/10 15:05:28;;;;;;;;;;;;;;;;;;2201624;59;2536;-19
2023/07/10 15:07:58;;;;;;;;;;;;;;;;;;2197179;67;2851;-19
2023/07/10 15:10:29;;;;;;;;;;;;;;;;;;2200831;67;1991;-19
2023/07/10 15:13:02;;;;;;;;;;;;;;;;;;2197840;59;2273;-19
2023/07/10 15:15:34;;;;;;;;;;;;;;;;;;2201066;59;2532;-19
2023/07/10 15:18:04;;;;;;;;;;;;;;;;;;2201392;59;2513;-19
2023/07/10 15:20:34;;;;;;;;;;;;;;;;;;2201863;67;2634;-19
2023/07/10 15:23:09;;;;;;;;;;;;;;;;;;2201955;67;2471;-19
2023/07/10 15:25:39;;;;;;;;;;;;;;;;;;2202026;67;2618;-19
2023/07/10 15:28:10;;;;;;;;;;;;;;;;;;2201743;59;2644;-20
2023/07/10 15:30:40;;;;;;;;;;;;;;;;;;2199663;67;3826;-19
2023/07/10 15:33:12;;;;;;;;;;;;;;;;;;2197960;59;3529;-19
2023/07/10 15:35:42;;;;;;;;;;;;;;;;;;2201523;67;2121;-19
2023/07/10 15:38:14;;;;;;;;;;;;;;;;;;2201348;67;2122;-19
2023/07/10 15:40:45;;;;;;;;;;;;;;;;;;2202296;67;2532;-20
2023/07/10 15:43:18;;;;;;;;;;;;;;;;;;2201680;67;2986;-19
2023/07/10 15:45:48;;;;;;;;;;;;;;;;;;2201564;67;2042;-19
2023/07/10 15:48:22;;;;;;;;;;;;;;;;;;2197356;67;2471;-19
2023/07/10 15:50:54;;;;;;;;;;;;;;;;;;2200804;59;2444;-19
2023/07/10 15:53:28;;;;;;;;;;;;;;;;;;2201665;67;2029;-19
2023/07/10 15:55:59;;;;;;;;;;;;;;;;;;2201151;59;2236;-20
2023/07/10 15:58:29;;;;;;;;;;;;;;;;;;2201822;67;1997;-18
2023/07/10 16:00:59;;;;;;;;;;;;;;;;;;2201550;67;2015;-19
2023/07/10 16:03:30;;;;;;;;;;;;;;;;;;2202576;59;1869;-19
2023/07/10 16:06:02;;;;;;;;;;;;;;;;;;2202386;59;2147;-19
2023/07/10 16:08:37;;;;;;;;;;;;;;;;;;2202563;67;2378;-19
2023/07/10 16:11:18;;;;;;;;;;;;;;;;;;2201981;59;2086;-19
2023/07/10 16:13:49;;;;;;;;;;;;;;;;;;2201821;59;2412;-19
2023/07/10 16:16:22;;;;;;;;;;;;;;;;;;2201922;67;2609;-19
2023/07/10 16:18:52;;;;;;;;;;;;;;;;;;2202442;59;2660;-19
2023/07/10 16:21:23;;;;;;;;;;;;;;;;;;2197630;67;2634;-19
2023/07/10 16:23:54;;;;;;;;;;;;;;;;;;2197452;59;2316;-20
2023/07/10 16:26:24;;;;;;;;;;;;;;;;;;2201817;59;2806;-19
2023/07/10 16:28:54;;;;;;;;;;;;;;;;;;2202008;67;2924;-19
2023/07/10 16:31:26;;;;;;;;;;;;;;;;;;2200408;59;3218;-19
2023/07/10 16:33:56;;;;;;;;;;;;;;;;;;2198201;67;2469;-19
2023/07/10 16:36:27;;;;;;;;;;;;;;;;;;2201304;67;2249;-18
2023/07/10 16:38:57;;;;;;;;;;;;;;;;;;2201783;67;2476;-19
2023/07/10 16:41:27;;;;;;;;;;;;;;;;;;2201514;67;2190;-18
2023/07/10 16:43:57;;;;;;;;;;;;;;;;;;2198571;59;2253;-19
2023/07/10 16:46:28;;;;;;;;;;;;;;;;;;2198084;59;2637;-19
2023/07/10 16:48:58;;;;;;;;;;;;;;;;;;2201539;59;2065;-19
2023/07/10 16:51:31;;;;;;;;;;;;;;;;;;2201908;59;2210;-18
2023/07/10 16:54:03;;;;;;;;;;;;;;;;;;2197249;59;2559;-18
2023/07/10 16:56:33;;;;;;;;;;;;;;;;;;2201049;59;2596;-19
2023/07/10 16:59:03;;;;;;;;;;;;;;;;;;2201373;67;2672;-18
2023/07/10 17:01:33;;;;;;;;;;;;;;;;;;2200797;67;2673;-18
2023/07/10 17:04:04;;;;;;;;;;;;;;;;;;2200942;59;2675;-19
2023/07/10 17:06:34;;;;;;;;;;;;;;;;;;2200467;59;2964;-18
2023/07/10 17:09:04;;;;;;;;;;;;;;;;;;2200489;59;2653;-18
2023/07/10 17:11:37;;;;;;;;;;;;;;;;;;2199651;59;2753;-18
2023/07/10 17:14:13;;;;;;;;;;;;;;;;;;2200901;59;1879;-18
2023/07/10 17:16:45;;;;;;;;;;;;;;;;;;2200024;59;2207;-19
2023/07/10 17:19:15;;;;;;;;;;;;;;;;;;2198778;59;2332;-18
2023/07/10 17:21:45;;;;;;;;;;;;;;;;;;2201101;59;2720;-18
2023/07/10 17:24:18;;;;;;;;;;;;;;;;;;2200422;59;2456;-19
2023/07/10 17:26:48;;;;;;;;;;;;;;;;;;2201383;59;2385;-18
2023/07/10 17:29:18;;;;;;;;;;;;;;;;;;2196821;59;2243;-18
2023/07/10 17:31:48;;;;;;;;;;;;;;;;;;2200825;59;2821;-18
2023/07/10 17:34:19;;;;;;;;;;;;;;;;;;2199683;59;2481;-18
2023/07/10 17:36:49;;;;;;;;;;;;;;;;;;2201414;67;2066;-18
2023/07/10 17:39:19;;;;;;;;;;;;;;;;;;2201064;67;2812;-18